sensor_id;sensor_type;location;lat;lon;timestamp;temperature;humidity
51801;DHT22;37855;53.204;6.568;2024-01-15T00:01:48;2.50;76.10
51801;DHT22;37855;53.204;6.568;2024-01-15T00:04:27;2.60;76.20
51801;DHT22;37855;53.204;6.568;2024-01-15T00:06:53;2.60;76.80
51801;DHT22;37855;53.204;6.568;2024-01-15T00:09:45;2.50;77.40
51801;DHT22;37855;53.204;6.568;2024-01-15T00:12:17;2.40;77.80
51801;DHT22;37855;53.204;6.568;2024-01-15T00:14:43;2.20;78.40
51801;DHT22;37855;53.204;6.568;2024-01-15T00:17:20;2.10;79.00
51801;DHT22;37855;53.204;6.568;2024-01-15T00:22:50;2.10;79.60
51801;DHT22;37855;53.204;6.568;2024-01-15T00:25:18;2.10;79.50
51801;DHT22;37855;53.204;6.568;2024-01-15T00:28:22;2.10;79.60
51801;DHT22;37855;53.204;6.568;2024-01-15T00:30:47;2.10;79.80
51801;DHT22;37855;53.204;6.568;2024-01-15T00:33:25;2.10;79.90
51801;DHT22;37855;53.204;6.568;2024-01-15T00:36:03;2.10;80.30
51801;DHT22;37855;53.204;6.568;2024-01-15T00:39:07;2.00;80.60
51801;DHT22;37855;53.204;6.568;2024-01-15T00:41:48;2.00;80.60
51801;DHT22;37855;53.204;6.568;2024-01-15T00:47:26;2.00;80.80
51801;DHT22;37855;53.204;6.568;2024-01-15T00:49:55;2.00;81.00
51801;DHT22;37855;53.204;6.568;2024-01-15T00:52:34;2.00;81.00
51801;DHT22;37855;53.204;6.568;2024-01-15T00:58:32;2.10;81.10
51801;DHT22;37855;53.204;6.568;2024-01-15T01:04:42;2.00;81.40
51801;DHT22;37855;53.204;6.568;2024-01-15T01:07:20;2.00;81.50
51801;DHT22;37855;53.204;6.568;2024-01-15T01:09:53;2.00;81.60
51801;DHT22;37855;53.204;6.568;2024-01-15T01:12:29;2.00;81.70
51801;DHT22;37855;53.204;6.568;2024-01-15T01:15:05;2.00;82.00
51801;DHT22;37855;53.204;6.568;2024-01-15T01:20:52;2.00;82.30
51801;DHT22;37855;53.204;6.568;2024-01-15T01:23:37;2.00;82.30
51801;DHT22;37855;53.204;6.568;2024-01-15T01:36:25;2.20;81.70
51801;DHT22;37855;53.204;6.568;2024-01-15T01:38:51;2.30;81.60
51801;DHT22;37855;53.204;6.568;2024-01-15T01:41:26;2.30;81.50
51801;DHT22;37855;53.204;6.568;2024-01-15T01:43:54;2.30;81.40
51801;DHT22;37855;53.204;6.568;2024-01-15T01:46:20;2.30;81.30
51801;DHT22;37855;53.204;6.568;2024-01-15T01:48:46;2.30;81.30
51801;DHT22;37855;53.204;6.568;2024-01-15T01:51:12;2.30;81.30
51801;DHT22;37855;53.204;6.568;2024-01-15T01:53:50;2.30;81.10
51801;DHT22;37855;53.204;6.568;2024-01-15T01:58:48;2.40;80.30
51801;DHT22;37855;53.204;6.568;2024-01-15T02:01:15;2.40;80.10
51801;DHT22;37855;53.204;6.568;2024-01-15T02:03:43;2.40;79.90
51801;DHT22;37855;53.204;6.568;2024-01-15T02:06:09;2.40;79.60
51801;DHT22;37855;53.204;6.568;2024-01-15T02:08:35;2.50;79.10
51801;DHT22;37855;53.204;6.568;2024-01-15T02:11:08;2.50;79.00
51801;DHT22;37855;53.204;6.568;2024-01-15T02:13:35;2.50;79.10
51801;DHT22;37855;53.204;6.568;2024-01-15T02:16:01;2.50;78.60
51801;DHT22;37855;53.204;6.568;2024-01-15T02:18:26;2.50;78.50
51801;DHT22;37855;53.204;6.568;2024-01-15T02:20:59;2.60;78.30
51801;DHT22;37855;53.204;6.568;2024-01-15T02:23:25;2.60;78.00
51801;DHT22;37855;53.204;6.568;2024-01-15T02:29:35;2.60;78.00
51801;DHT22;37855;53.204;6.568;2024-01-15T02:35:26;2.60;77.70
51801;DHT22;37855;53.204;6.568;2024-01-15T02:37:52;2.60;78.20
51801;DHT22;37855;53.204;6.568;2024-01-15T02:40:17;2.60;78.60
51801;DHT22;37855;53.204;6.568;2024-01-15T02:42:43;2.50;78.80
51801;DHT22;37855;53.204;6.568;2024-01-15T02:45:10;2.50;79.30
51801;DHT22;37855;53.204;6.568;2024-01-15T02:47:36;2.50;79.60
51801;DHT22;37855;53.204;6.568;2024-01-15T02:50:11;2.50;79.70
51801;DHT22;37855;53.204;6.568;2024-01-15T02:52:37;2.50;79.90
51801;DHT22;37855;53.204;6.568;2024-01-15T02:55:09;2.40;80.10
51801;DHT22;37855;53.204;6.568;2024-01-15T02:57:34;2.40;80.10
51801;DHT22;37855;53.204;6.568;2024-01-15T03:00:00;2.40;80.20
51801;DHT22;37855;53.204;6.568;2024-01-15T03:02:26;2.40;80.20
51801;DHT22;37855;53.204;6.568;2024-01-15T03:04:52;2.40;80.20
51801;DHT22;37855;53.204;6.568;2024-01-15T03:07:18;2.40;80.20
51801;DHT22;37855;53.204;6.568;2024-01-15T03:09:44;2.30;80.10
51801;DHT22;37855;53.204;6.568;2024-01-15T03:15:06;2.30;79.90
51801;DHT22;37855;53.204;6.568;2024-01-15T03:17:35;2.40;79.90
51801;DHT22;37855;53.204;6.568;2024-01-15T03:20:13;2.40;79.80
51801;DHT22;37855;53.204;6.568;2024-01-15T03:22:45;2.40;79.80
51801;DHT22;37855;53.204;6.568;2024-01-15T03:25:10;2.40;79.80
51801;DHT22;37855;53.204;6.568;2024-01-15T03:27:36;2.40;79.90
51801;DHT22;37855;53.204;6.568;2024-01-15T03:30:03;2.50;80.10
51801;DHT22;37855;53.204;6.568;2024-01-15T03:32:29;2.60;79.70
51801;DHT22;37855;53.204;6.568;2024-01-15T03:34:55;2.50;79.60
51801;DHT22;37855;53.204;6.568;2024-01-15T03:37:21;2.60;79.50
51801;DHT22;37855;53.204;6.568;2024-01-15T03:39:53;2.60;79.60
51801;DHT22;37855;53.204;6.568;2024-01-15T03:42:18;2.60;79.70
51801;DHT22;37855;53.204;6.568;2024-01-15T03:44:44;2.60;79.60
51801;DHT22;37855;53.204;6.568;2024-01-15T03:47:10;2.60;79.30
51801;DHT22;37855;53.204;6.568;2024-01-15T03:49:51;2.60;79.30
51801;DHT22;37855;53.204;6.568;2024-01-15T03:52:16;2.60;79.30
51801;DHT22;37855;53.204;6.568;2024-01-15T03:54:42;2.60;79.30
51801;DHT22;37855;53.204;6.568;2024-01-15T03:57:08;2.50;79.20
51801;DHT22;37855;53.204;6.568;2024-01-15T03:59:34;2.60;79.00
51801;DHT22;37855;53.204;6.568;2024-01-15T04:01:59;2.60;78.70
51801;DHT22;37855;53.204;6.568;2024-01-15T04:04:25;2.60;78.30
51801;DHT22;37855;53.204;6.568;2024-01-15T04:06:51;2.60;77.90
51801;DHT22;37855;53.204;6.568;2024-01-15T04:09:17;2.60;77.50
51801;DHT22;37855;53.204;6.568;2024-01-15T04:11:42;2.70;76.40
51801;DHT22;37855;53.204;6.568;2024-01-15T04:14:08;2.70;75.60
51801;DHT22;37855;53.204;6.568;2024-01-15T04:16:34;2.80;74.80
51801;DHT22;37855;53.204;6.568;2024-01-15T04:19:00;2.80;74.10
51801;DHT22;37855;53.204;6.568;2024-01-15T04:21:35;2.90;73.60
51801;DHT22;37855;53.204;6.568;2024-01-15T04:27:41;2.90;74.30
51801;DHT22;37855;53.204;6.568;2024-01-15T04:33:28;2.70;74.90
51801;DHT22;37855;53.204;6.568;2024-01-15T04:35:54;2.50;75.30
51801;DHT22;37855;53.204;6.568;2024-01-15T04:38:31;2.50;75.50
51801;DHT22;37855;53.204;6.568;2024-01-15T04:40:58;2.40;75.40
51801;DHT22;37855;53.204;6.568;2024-01-15T04:43:31;2.40;74.90
51801;DHT22;37855;53.204;6.568;2024-01-15T04:45:58;2.30;74.80
51801;DHT22;37855;53.204;6.568;2024-01-15T04:48:27;2.30;74.90
51801;DHT22;37855;53.204;6.568;2024-01-15T04:50:56;2.20;74.30
51801;DHT22;37855;53.204;6.568;2024-01-15T04:53:21;2.20;74.40
51801;DHT22;37855;53.204;6.568;2024-01-15T04:55:48;2.20;74.00
51801;DHT22;37855;53.204;6.568;2024-01-15T04:58:30;2.20;74.10
51801;DHT22;37855;53.204;6.568;2024-01-15T05:00:55;2.10;74.10
51801;DHT22;37855;53.204;6.568;2024-01-15T05:03:21;2.10;74.20
51801;DHT22;37855;53.204;6.568;2024-01-15T05:05:47;2.10;74.30
51801;DHT22;37855;53.204;6.568;2024-01-15T05:08:13;2.00;74.50
51801;DHT22;37855;53.204;6.568;2024-01-15T05:10:38;2.00;74.60
51801;DHT22;37855;53.204;6.568;2024-01-15T05:13:04;2.00;74.70
51801;DHT22;37855;53.204;6.568;2024-01-15T05:15:30;2.00;74.80
51801;DHT22;37855;53.204;6.568;2024-01-15T05:17:58;2.00;74.90
51801;DHT22;37855;53.204;6.568;2024-01-15T05:20:33;2.00;75.20
51801;DHT22;37855;53.204;6.568;2024-01-15T05:22:59;1.90;75.40
51801;DHT22;37855;53.204;6.568;2024-01-15T05:25:25;1.90;75.70
51801;DHT22;37855;53.204;6.568;2024-01-15T05:31:05;1.90;76.10
51801;DHT22;37855;53.204;6.568;2024-01-15T05:40:27;1.80;76.80
51801;DHT22;37855;53.204;6.568;2024-01-15T05:42:53;1.80;76.90
51801;DHT22;37855;53.204;6.568;2024-01-15T05:45:19;1.80;77.00
51801;DHT22;37855;53.204;6.568;2024-01-15T05:47:56;1.70;77.30
51801;DHT22;37855;53.204;6.568;2024-01-15T05:50:22;1.70;77.30
51801;DHT22;37855;53.204;6.568;2024-01-15T05:53:05;1.80;77.30
51801;DHT22;37855;53.204;6.568;2024-01-15T05:55:40;1.80;77.40
51801;DHT22;37855;53.204;6.568;2024-01-15T05:58:24;1.80;77.30
51801;DHT22;37855;53.204;6.568;2024-01-15T06:00:50;1.80;77.30
51801;DHT22;37855;53.204;6.568;2024-01-15T06:03:16;1.90;77.30
51801;DHT22;37855;53.204;6.568;2024-01-15T06:05:54;1.90;77.20
51801;DHT22;37855;53.204;6.568;2024-01-15T06:08:20;1.90;77.10
51801;DHT22;37855;53.204;6.568;2024-01-15T06:10:48;1.90;77.10
51801;DHT22;37855;53.204;6.568;2024-01-15T06:13:26;1.90;77.30
51801;DHT22;37855;53.204;6.568;2024-01-15T06:15:52;1.90;77.50
51801;DHT22;37855;53.204;6.568;2024-01-15T06:24:35;1.90;77.80
51801;DHT22;37855;53.204;6.568;2024-01-15T06:27:05;1.90;78.00
51801;DHT22;37855;53.204;6.568;2024-01-15T06:29:32;1.80;77.90
51801;DHT22;37855;53.204;6.568;2024-01-15T06:31:58;1.90;78.00
51801;DHT22;37855;53.204;6.568;2024-01-15T06:34:24;1.90;78.20
51801;DHT22;37855;53.204;6.568;2024-01-15T06:36:50;1.80;78.30
51801;DHT22;37855;53.204;6.568;2024-01-15T06:39:33;1.80;78.50
51801;DHT22;37855;53.204;6.568;2024-01-15T06:42:00;1.80;78.90
51801;DHT22;37855;53.204;6.568;2024-01-15T06:44:26;1.80;78.90
51801;DHT22;37855;53.204;6.568;2024-01-15T06:47:08;1.90;78.90
51801;DHT22;37855;53.204;6.568;2024-01-15T06:49:35;1.90;79.00
51801;DHT22;37855;53.204;6.568;2024-01-15T06:52:01;1.90;79.10
51801;DHT22;37855;53.204;6.568;2024-01-15T06:54:26;1.90;79.10
51801;DHT22;37855;53.204;6.568;2024-01-15T06:57:05;1.90;79.10
51801;DHT22;37855;53.204;6.568;2024-01-15T06:59:32;1.80;79.30
51801;DHT22;37855;53.204;6.568;2024-01-15T07:01:58;1.80;79.50
51801;DHT22;37855;53.204;6.568;2024-01-15T07:04:42;1.90;79.60
51801;DHT22;37855;53.204;6.568;2024-01-15T07:07:08;1.90;79.60
51801;DHT22;37855;53.204;6.568;2024-01-15T07:09:34;1.90;79.70
51801;DHT22;37855;53.204;6.568;2024-01-15T07:12:05;2.00;79.30
51801;DHT22;37855;53.204;6.568;2024-01-15T07:14:31;1.90;79.00
51801;DHT22;37855;53.204;6.568;2024-01-15T07:17:09;1.90;78.90
51801;DHT22;37855;53.204;6.568;2024-01-15T07:20:12;1.80;78.90
51801;DHT22;37855;53.204;6.568;2024-01-15T07:25:55;1.70;79.10
51801;DHT22;37855;53.204;6.568;2024-01-15T07:32:02;1.60;79.50
51801;DHT22;37855;53.204;6.568;2024-01-15T07:34:28;1.60;79.50
51801;DHT22;37855;53.204;6.568;2024-01-15T07:36:55;1.60;79.60
51801;DHT22;37855;53.204;6.568;2024-01-15T07:39:22;1.60;79.70
51801;DHT22;37855;53.204;6.568;2024-01-15T07:41:48;1.50;79.90
51801;DHT22;37855;53.204;6.568;2024-01-15T07:44:14;1.60;79.80
51801;DHT22;37855;53.204;6.568;2024-01-15T07:46:48;1.60;79.70
51801;DHT22;37855;53.204;6.568;2024-01-15T07:49:23;1.60;79.40
51801;DHT22;37855;53.204;6.568;2024-01-15T07:51:58;1.70;78.90
51801;DHT22;37855;53.204;6.568;2024-01-15T07:54:24;1.80;78.40
51801;DHT22;37855;53.204;6.568;2024-01-15T07:57:08;1.80;78.10
51801;DHT22;37855;53.204;6.568;2024-01-15T07:59:35;1.80;78.30
51801;DHT22;37855;53.204;6.568;2024-01-15T08:02:16;1.80;78.30
51801;DHT22;37855;53.204;6.568;2024-01-15T08:04:51;1.70;78.70
51801;DHT22;37855;53.204;6.568;2024-01-15T08:07:16;1.70;78.80
51801;DHT22;37855;53.204;6.568;2024-01-15T08:09:43;1.70;79.00
51801;DHT22;37855;53.204;6.568;2024-01-15T08:12:09;1.70;79.40
51801;DHT22;37855;53.204;6.568;2024-01-15T08:14:55;1.70;79.40
51801;DHT22;37855;53.204;6.568;2024-01-15T08:17:33;1.70;79.70
51801;DHT22;37855;53.204;6.568;2024-01-15T08:20:11;1.70;79.70
51801;DHT22;37855;53.204;6.568;2024-01-15T08:26:25;1.60;80.10
51801;DHT22;37855;53.204;6.568;2024-01-15T08:28:51;1.60;80.10
51801;DHT22;37855;53.204;6.568;2024-01-15T08:31:22;1.60;80.20
51801;DHT22;37855;53.204;6.568;2024-01-15T08:33:57;1.60;80.20
51801;DHT22;37855;53.204;6.568;2024-01-15T08:36:28;1.70;80.10
51801;DHT22;37855;53.204;6.568;2024-01-15T08:39:11;1.70;80.00
51801;DHT22;37855;53.204;6.568;2024-01-15T08:41:39;1.80;79.70
51801;DHT22;37855;53.204;6.568;2024-01-15T08:44:04;1.80;79.70
51801;DHT22;37855;53.204;6.568;2024-01-15T08:46:30;1.90;79.50
51801;DHT22;37855;53.204;6.568;2024-01-15T08:48:56;2.00;79.20
51801;DHT22;37855;53.204;6.568;2024-01-15T08:51:22;2.00;78.30
51801;DHT22;37855;53.204;6.568;2024-01-15T08:53:47;2.10;77.30
51801;DHT22;37855;53.204;6.568;2024-01-15T08:56:13;2.10;76.60
51801;DHT22;37855;53.204;6.568;2024-01-15T08:58:40;2.10;76.60
51801;DHT22;37855;53.204;6.568;2024-01-15T09:01:06;2.10;76.60
51801;DHT22;37855;53.204;6.568;2024-01-15T09:03:31;2.10;77.00
51801;DHT22;37855;53.204;6.568;2024-01-15T09:06:10;2.00;77.30
51801;DHT22;37855;53.204;6.568;2024-01-15T09:08:49;2.00;77.50
51801;DHT22;37855;53.204;6.568;2024-01-15T09:11:20;2.00;77.80
51801;DHT22;37855;53.204;6.568;2024-01-15T09:13:45;2.00;78.00
51801;DHT22;37855;53.204;6.568;2024-01-15T09:16:11;2.00;78.00
51801;DHT22;37855;53.204;6.568;2024-01-15T09:18:37;2.00;78.00
51801;DHT22;37855;53.204;6.568;2024-01-15T09:21:40;2.10;77.80
51801;DHT22;37855;53.204;6.568;2024-01-15T09:27:35;2.10;77.60
51801;DHT22;37855;53.204;6.568;2024-01-15T09:30:02;2.10;77.70
51801;DHT22;37855;53.204;6.568;2024-01-15T09:32:30;2.20;77.80
51801;DHT22;37855;53.204;6.568;2024-01-15T09:34:56;2.20;77.50
51801;DHT22;37855;53.204;6.568;2024-01-15T09:37:28;2.20;77.70
51801;DHT22;37855;53.204;6.568;2024-01-15T09:39:53;2.20;77.60
51801;DHT22;37855;53.204;6.568;2024-01-15T09:42:23;2.20;77.90
51801;DHT22;37855;53.204;6.568;2024-01-15T09:44:49;2.20;77.90
51801;DHT22;37855;53.204;6.568;2024-01-15T09:47:15;2.30;77.80
51801;DHT22;37855;53.204;6.568;2024-01-15T09:49:41;2.30;77.60
51801;DHT22;37855;53.204;6.568;2024-01-15T09:52:16;2.30;77.50
51801;DHT22;37855;53.204;6.568;2024-01-15T09:54:52;2.30;77.80
51801;DHT22;37855;53.204;6.568;2024-01-15T09:57:44;2.40;77.90
51801;DHT22;37855;53.204;6.568;2024-01-15T10:03:26;2.50;77.80
51801;DHT22;37855;53.204;6.568;2024-01-15T10:05:52;2.50;77.90
51801;DHT22;37855;53.204;6.568;2024-01-15T10:08:18;2.50;77.70
51801;DHT22;37855;53.204;6.568;2024-01-15T10:10:45;2.50;77.70
51801;DHT22;37855;53.204;6.568;2024-01-15T10:13:11;2.50;77.60
51801;DHT22;37855;53.204;6.568;2024-01-15T10:15:40;2.50;77.70
51801;DHT22;37855;53.204;6.568;2024-01-15T10:18:08;2.50;77.90
51801;DHT22;37855;53.204;6.568;2024-01-15T10:20:33;2.40;78.00
51801;DHT22;37855;53.204;6.568;2024-01-15T10:23:03;2.40;78.20
51801;DHT22;37855;53.204;6.568;2024-01-15T10:25:29;2.30;78.80
51801;DHT22;37855;53.204;6.568;2024-01-15T10:28:03;2.40;78.80
51801;DHT22;37855;53.204;6.568;2024-01-15T10:30:30;2.40;79.00
51801;DHT22;37855;53.204;6.568;2024-01-15T10:33:33;2.50;79.10
51801;DHT22;37855;53.204;6.568;2024-01-15T10:36:09;2.60;79.00
51801;DHT22;37855;53.204;6.568;2024-01-15T10:38:36;2.70;78.80
51801;DHT22;37855;53.204;6.568;2024-01-15T10:41:07;2.80;78.80
51801;DHT22;37855;53.204;6.568;2024-01-15T10:43:39;2.90;78.50
51801;DHT22;37855;53.204;6.568;2024-01-15T10:46:19;3.00;78.60
51801;DHT22;37855;53.204;6.568;2024-01-15T10:49:04;3.00;78.50
51801;DHT22;37855;53.204;6.568;2024-01-15T10:51:30;3.00;78.10
51801;DHT22;37855;53.204;6.568;2024-01-15T10:54:13;3.00;77.50
51801;DHT22;37855;53.204;6.568;2024-01-15T10:56:45;2.90;77.70
51801;DHT22;37855;53.204;6.568;2024-01-15T10:59:28;2.80;78.00
51801;DHT22;37855;53.204;6.568;2024-01-15T11:01:57;2.70;78.30
51801;DHT22;37855;53.204;6.568;2024-01-15T11:04:33;2.60;78.50
51801;DHT22;37855;53.204;6.568;2024-01-15T11:07:00;2.60;78.80
51801;DHT22;37855;53.204;6.568;2024-01-15T11:09:30;2.60;78.90
51801;DHT22;37855;53.204;6.568;2024-01-15T11:12:13;2.60;79.00
51801;DHT22;37855;53.204;6.568;2024-01-15T11:14:47;2.60;78.70
51801;DHT22;37855;53.204;6.568;2024-01-15T11:20:35;2.50;78.70
51801;DHT22;37855;53.204;6.568;2024-01-15T11:23:50;2.50;79.00
51801;DHT22;37855;53.204;6.568;2024-01-15T11:26:45;2.50;79.10
51801;DHT22;37855;53.204;6.568;2024-01-15T11:34:56;2.60;78.60
51801;DHT22;37855;53.204;6.568;2024-01-15T11:40:38;2.70;78.30
51801;DHT22;37855;53.204;6.568;2024-01-15T11:43:07;2.60;78.30
51801;DHT22;37855;53.204;6.568;2024-01-15T11:45:50;2.60;78.50
51801;DHT22;37855;53.204;6.568;2024-01-15T11:48:35;2.50;78.60
51801;DHT22;37855;53.204;6.568;2024-01-15T11:51:31;2.50;78.60
51801;DHT22;37855;53.204;6.568;2024-01-15T11:53:59;2.50;78.80
51801;DHT22;37855;53.204;6.568;2024-01-15T11:56:40;2.50;78.90
51801;DHT22;37855;53.204;6.568;2024-01-15T11:59:08;2.50;79.10
51801;DHT22;37855;53.204;6.568;2024-01-15T12:04:54;2.20;79.30
51801;DHT22;37855;53.204;6.568;2024-01-15T12:07:19;2.10;79.80
51801;DHT22;37855;53.204;6.568;2024-01-15T12:09:45;2.00;80.20
51801;DHT22;37855;53.204;6.568;2024-01-15T12:22:42;2.10;80.90
51801;DHT22;37855;53.204;6.568;2024-01-15T12:25:22;2.10;80.90
51801;DHT22;37855;53.204;6.568;2024-01-15T12:30:30;2.20;81.00
51801;DHT22;37855;53.204;6.568;2024-01-15T12:33:02;2.20;80.80
51801;DHT22;37855;53.204;6.568;2024-01-15T12:35:35;2.30;80.80
51801;DHT22;37855;53.204;6.568;2024-01-15T12:38:07;2.30;80.70
51801;DHT22;37855;53.204;6.568;2024-01-15T12:40:33;2.40;80.50
51801;DHT22;37855;53.204;6.568;2024-01-15T12:43:02;2.50;80.30
51801;DHT22;37855;53.204;6.568;2024-01-15T12:45:34;2.60;79.50
51801;DHT22;37855;53.204;6.568;2024-01-15T12:48:00;2.70;78.80
51801;DHT22;37855;53.204;6.568;2024-01-15T12:50:31;2.70;78.10
51801;DHT22;37855;53.204;6.568;2024-01-15T12:52:58;2.80;77.70
51801;DHT22;37855;53.204;6.568;2024-01-15T12:55:34;2.90;77.10
51801;DHT22;37855;53.204;6.568;2024-01-15T12:58:00;2.90;76.80
51801;DHT22;37855;53.204;6.568;2024-01-15T13:00:38;3.00;76.40
51801;DHT22;37855;53.204;6.568;2024-01-15T13:05:36;3.00;76.10
51801;DHT22;37855;53.204;6.568;2024-01-15T13:22:35;3.00;75.30
51801;DHT22;37855;53.204;6.568;2024-01-15T13:25:01;2.90;75.20
51801;DHT22;37855;53.204;6.568;2024-01-15T13:27:48;2.80;74.70
51801;DHT22;37855;53.204;6.568;2024-01-15T13:30:38;2.80;74.70
51801;DHT22;37855;53.204;6.568;2024-01-15T13:43:33;3.20;72.20
51801;DHT22;37855;53.204;6.568;2024-01-15T13:46:19;3.20;72.00
51801;DHT22;37855;53.204;6.568;2024-01-15T13:48:46;3.20;71.90
51801;DHT22;37855;53.204;6.568;2024-01-15T13:54:09;3.20;71.50
51801;DHT22;37855;53.204;6.568;2024-01-15T14:00:17;2.90;72.70
51801;DHT22;37855;53.204;6.568;2024-01-15T14:05:41;2.50;74.90
51801;DHT22;37855;53.204;6.568;2024-01-15T14:08:32;2.40;75.70
51801;DHT22;37855;53.204;6.568;2024-01-15T14:11:04;2.30;76.50
51801;DHT22;37855;53.204;6.568;2024-01-15T14:17:25;2.20;77.50
51801;DHT22;37855;53.204;6.568;2024-01-15T14:20:07;2.20;77.70
51801;DHT22;37855;53.204;6.568;2024-01-15T14:22:35;2.20;77.90
51801;DHT22;37855;53.204;6.568;2024-01-15T14:25:25;2.20;78.00
51801;DHT22;37855;53.204;6.568;2024-01-15T14:28:04;2.20;78.10
51801;DHT22;37855;53.204;6.568;2024-01-15T14:30:39;2.30;78.00
51801;DHT22;37855;53.204;6.568;2024-01-15T14:33:11;2.30;78.20
51801;DHT22;37855;53.204;6.568;2024-01-15T14:40:00;2.40;78.10
51801;DHT22;37855;53.204;6.568;2024-01-15T14:42:34;2.40;78.10
51801;DHT22;37855;53.204;6.568;2024-01-15T14:54:11;2.50;78.20
51801;DHT22;37855;53.204;6.568;2024-01-15T14:56:40;2.50;78.40
51801;DHT22;37855;53.204;6.568;2024-01-15T14:59:32;2.40;78.50
51801;DHT22;37855;53.204;6.568;2024-01-15T15:01:58;2.40;78.60
51801;DHT22;37855;53.204;6.568;2024-01-15T15:04:42;2.40;78.60
51801;DHT22;37855;53.204;6.568;2024-01-15T15:07:08;2.40;78.60
51801;DHT22;37855;53.204;6.568;2024-01-15T15:09:46;2.40;78.50
51801;DHT22;37855;53.204;6.568;2024-01-15T15:12:41;2.30;78.70
51801;DHT22;37855;53.204;6.568;2024-01-15T15:15:08;2.30;78.80
51801;DHT22;37855;53.204;6.568;2024-01-15T15:21:24;2.40;78.50
51801;DHT22;37855;53.204;6.568;2024-01-15T15:23:58;2.40;78.30
51801;DHT22;37855;53.204;6.568;2024-01-15T15:26:33;2.40;78.10
51801;DHT22;37855;53.204;6.568;2024-01-15T15:29:02;2.30;78.10
51801;DHT22;37855;53.204;6.568;2024-01-15T15:31:53;2.30;78.40
51801;DHT22;37855;53.204;6.568;2024-01-15T15:34:25;2.20;78.50
51801;DHT22;37855;53.204;6.568;2024-01-15T15:36:51;2.20;78.80
51801;DHT22;37855;53.204;6.568;2024-01-15T15:39:16;2.10;78.90
51801;DHT22;37855;53.204;6.568;2024-01-15T15:41:43;2.10;79.10
51801;DHT22;37855;53.204;6.568;2024-01-15T15:44:36;2.00;79.40
51801;DHT22;37855;53.204;6.568;2024-01-15T15:47:09;2.00;79.60
51801;DHT22;37855;53.204;6.568;2024-01-15T15:49:35;1.90;79.80
51801;DHT22;37855;53.204;6.568;2024-01-15T15:52:01;1.80;80.00
51801;DHT22;37855;53.204;6.568;2024-01-15T15:54:36;1.80;80.60
51801;DHT22;37855;53.204;6.568;2024-01-15T15:57:11;1.80;80.70
51801;DHT22;37855;53.204;6.568;2024-01-15T15:59:56;1.80;80.70
51801;DHT22;37855;53.204;6.568;2024-01-15T16:02:26;1.70;80.70
51801;DHT22;37855;53.204;6.568;2024-01-15T16:04:54;1.70;81.20
51801;DHT22;37855;53.204;6.568;2024-01-15T16:07:27;1.70;81.40
51801;DHT22;37855;53.204;6.568;2024-01-15T16:09:57;1.70;81.40
51801;DHT22;37855;53.204;6.568;2024-01-15T16:12:45;1.70;81.00
51801;DHT22;37855;53.204;6.568;2024-01-15T16:18:21;1.60;81.00
51801;DHT22;37855;53.204;6.568;2024-01-15T16:20:51;1.50;80.90
51801;DHT22;37855;53.204;6.568;2024-01-15T16:23:24;1.40;81.20
51801;DHT22;37855;53.204;6.568;2024-01-15T16:26:07;1.30;81.40
51801;DHT22;37855;53.204;6.568;2024-01-15T16:28:39;1.30;81.50
51801;DHT22;37855;53.204;6.568;2024-01-15T16:31:14;1.20;81.50
51801;DHT22;37855;53.204;6.568;2024-01-15T16:33:43;1.20;81.60
51801;DHT22;37855;53.204;6.568;2024-01-15T16:36:13;1.20;81.50
51801;DHT22;37855;53.204;6.568;2024-01-15T16:39:21;1.10;81.60
51801;DHT22;37855;53.204;6.568;2024-01-15T16:42:31;1.10;81.80
51801;DHT22;37855;53.204;6.568;2024-01-15T16:45:12;1.20;81.80
51801;DHT22;37855;53.204;6.568;2024-01-15T16:47:58;1.10;81.70
51801;DHT22;37855;53.204;6.568;2024-01-15T16:50:51;1.10;81.80
51801;DHT22;37855;53.204;6.568;2024-01-15T16:53:37;1.10;81.80
51801;DHT22;37855;53.204;6.568;2024-01-15T16:56:21;1.20;81.70
51801;DHT22;37855;53.204;6.568;2024-01-15T16:58:47;1.20;81.60
51801;DHT22;37855;53.204;6.568;2024-01-15T17:01:12;1.40;82.60
51801;DHT22;37855;53.204;6.568;2024-01-15T17:03:38;1.60;81.90
51801;DHT22;37855;53.204;6.568;2024-01-15T17:06:06;1.70;81.10
51801;DHT22;37855;53.204;6.568;2024-01-15T17:08:34;1.60;80.90
51801;DHT22;37855;53.204;6.568;2024-01-15T17:14:59;1.60;80.70
51801;DHT22;37855;53.204;6.568;2024-01-15T17:17:48;1.60;80.70
51801;DHT22;37855;53.204;6.568;2024-01-15T17:20:14;1.60;80.70
51801;DHT22;37855;53.204;6.568;2024-01-15T17:22:46;1.50;80.60
51801;DHT22;37855;53.204;6.568;2024-01-15T17:25:15;1.50;80.80
51801;DHT22;37855;53.204;6.568;2024-01-15T17:27:56;1.40;80.90
51801;DHT22;37855;53.204;6.568;2024-01-15T17:30:23;1.40;81.10
51801;DHT22;37855;53.204;6.568;2024-01-15T17:33:05;1.40;81.30
51801;DHT22;37855;53.204;6.568;2024-01-15T17:35:51;1.40;81.30
51801;DHT22;37855;53.204;6.568;2024-01-15T17:38:17;1.30;81.40
51801;DHT22;37855;53.204;6.568;2024-01-15T17:40:46;1.30;81.70
51801;DHT22;37855;53.204;6.568;2024-01-15T17:43:38;1.30;81.80
51801;DHT22;37855;53.204;6.568;2024-01-15T17:46:04;1.30;81.80
51801;DHT22;37855;53.204;6.568;2024-01-15T17:48:43;1.30;81.90
51801;DHT22;37855;53.204;6.568;2024-01-15T17:51:09;1.30;82.20
51801;DHT22;37855;53.204;6.568;2024-01-15T17:54:13;1.30;82.30
51801;DHT22;37855;53.204;6.568;2024-01-15T17:59:15;1.30;82.30
51801;DHT22;37855;53.204;6.568;2024-01-15T18:01:53;1.40;82.70
51801;DHT22;37855;53.204;6.568;2024-01-15T18:04:20;1.40;82.20
51801;DHT22;37855;53.204;6.568;2024-01-15T18:06:46;1.50;81.90
51801;DHT22;37855;53.204;6.568;2024-01-15T18:09:15;1.40;82.00
51801;DHT22;37855;53.204;6.568;2024-01-15T18:11:55;1.40;81.90
51801;DHT22;37855;53.204;6.568;2024-01-15T18:14:35;1.40;81.80
51801;DHT22;37855;53.204;6.568;2024-01-15T18:17:03;1.40;81.80
51801;DHT22;37855;53.204;6.568;2024-01-15T18:20:02;1.40;81.80
51801;DHT22;37855;53.204;6.568;2024-01-15T18:22:40;1.40;81.80
51801;DHT22;37855;53.204;6.568;2024-01-15T18:25:08;1.40;81.80
51801;DHT22;37855;53.204;6.568;2024-01-15T18:27:45;1.40;81.70
51801;DHT22;37855;53.204;6.568;2024-01-15T18:30:23;1.40;81.80
51801;DHT22;37855;53.204;6.568;2024-01-15T18:32:49;1.40;81.70
51801;DHT22;37855;53.204;6.568;2024-01-15T18:35:24;1.40;81.60
51801;DHT22;37855;53.204;6.568;2024-01-15T18:38:16;1.40;81.60
51801;DHT22;37855;53.204;6.568;2024-01-15T18:40:43;1.40;81.80
51801;DHT22;37855;53.204;6.568;2024-01-15T18:43:08;1.40;81.50
51801;DHT22;37855;53.204;6.568;2024-01-15T18:45:35;1.40;81.30
51801;DHT22;37855;53.204;6.568;2024-01-15T18:48:04;1.40;81.40
51801;DHT22;37855;53.204;6.568;2024-01-15T18:50:31;1.40;81.40
51801;DHT22;37855;53.204;6.568;2024-01-15T18:52:57;1.40;81.50
51801;DHT22;37855;53.204;6.568;2024-01-15T18:55:42;1.50;81.50
51801;DHT22;37855;53.204;6.568;2024-01-15T18:58:08;1.40;81.20
51801;DHT22;37855;53.204;6.568;2024-01-15T19:00:34;1.50;80.70
51801;DHT22;37855;53.204;6.568;2024-01-15T19:03:00;1.50;80.90
51801;DHT22;37855;53.204;6.568;2024-01-15T19:05:27;1.50;80.60
51801;DHT22;37855;53.204;6.568;2024-01-15T19:07:53;1.50;80.30
51801;DHT22;37855;53.204;6.568;2024-01-15T19:10:22;1.50;80.00
51801;DHT22;37855;53.204;6.568;2024-01-15T19:12:56;1.50;79.60